Welcome!

Visit our other weather sites:

Template documentation
and downloads

And another site



There are no active watches, warnings or advisories

Nearby METAR Reports

   
KAVP - Albrightsville, PA
Updated: Oct 23 2018 8:54 pm
Mostly Cloudy  
Mostly Cloudy  
   Wind: West 8.1 mph
Wind: West 8.1 mph
Temperature: 46.4°F
Wind Chill: 42.8°F
Dew Point: 35.6°F
Humidity: 66%
Barometer: 30.04 inHg
Clouds: Mostly Cloudy
Visibility: 10 mi
Cloud details: Mostly Cloudy 3353 m
KAVP 240154Z 28007KT 10SM BKN110 08/02 A3004 RMK AO2 SLP173 T00780017
KIWA - Apache Junction, AZ
Updated: Oct 23 2018 8:47 pm
Nearby Showers, Mostly Cloudy  
Nearby Showers, Mostly Cloudy  
   Wind: varies 3.5 mph
Wind: varies 3.5 mph
Temperature: 73.4°F
Dew Point: 53.6°F
Humidity: 50%
Barometer: 29.9 inHg
Clouds: Mostly Cloudy
Visibility: 20 mi
Cloud details: Mostly Cloudy 2438 m
KIWA 240147Z VRB03KT 20SM VCSH BKN080 23/12 A2990
KPKB - Blue Rock, OH
Updated: Oct 23 2018 8:53 pm
Clear  
Clear  
   Wind: NNW 3.5 mph
Wind: NNW 3.5 mph
Temperature: 46.4°F
Wind Chill: 44.6°F
Dew Point: 35.6°F
Humidity: 66%
Barometer: 30.25 inHg
Clouds: Clear
Visibility: 10 mi
Cloud details: Clear
KPKB 240153Z 33003KT 10SM CLR 08/02 A3025 RMK AO2 SLP243 T00780017
KHVN - Branford, CT
Updated: Oct 23 2018 8:53 pm
Clear  
Clear  
   Wind: NW 5.8 mph
Wind: NW 5.8 mph
Temperature: 50°F
Wind Chill: 48.2°F
Dew Point: 42.8°F
Humidity: 76%
Barometer: 29.96 inHg
Clouds: Clear
Visibility: 10 mi
Cloud details: Clear
KHVN 240153Z 32005KT 10SM CLR 10/06 A2996 RMK AO2 SLP145 T01000061
KPHX - Carefree, AZ
Updated: Oct 23 2018 8:51 pm
Mostly Cloudy  
Mostly Cloudy  
   Wind: NE 15 mph<br />Gust to 15 mph
Wind: NE 15 mph
Gust to 15 mph
Temperature: 75.2°F
Dew Point: 55.4°F
Humidity: 50%
Barometer: 29.86 inHg
Clouds: Mostly Cloudy
Visibility: 10 mi
Cloud details: Partly Cloudy 1494 m,
Partly Cloudy 2743 m,
Mostly Cloudy 3658 m,
Mostly Cloudy 7620 m
KPHX 240151Z 04013G21KT 10SM SCT049 SCT090 BKN120 BKN250 24/13 A2986 RMK AO2 LTG DSNT W RAB06E40 SLP096 OCNL LTGCGIC DSNT W-NW CB DSNT W-NW P0000 T02440128
 

Script developed by  Saratoga-weather.org Adapted for the template by  Weerstation Leuven